createdAt,value
2022-09-10T00:03:35.377Z,97929.13
2022-09-10T00:08:39.169Z,97928.75
2022-09-10T00:13:42.365Z,97929.22
2022-09-10T00:18:44.873Z,97934.81
2022-09-10T00:23:47.982Z,97938.09
2022-09-10T00:28:51.724Z,97926.38
2022-09-10T00:33:54.899Z,97933.78
2022-09-10T00:38:59.937Z,97926.25
2022-09-10T00:44:04.157Z,97925.44
2022-09-10T00:49:22.740Z,97928.53
2022-09-10T00:54:27.446Z,97936.06
2022-09-10T00:59:31.084Z,97932.13
2022-09-10T01:04:33.482Z,97930.22
2022-09-10T01:09:36.446Z,97932.13
2022-09-10T01:15:07.159Z,97931.66
2022-09-10T01:20:41.366Z,97929.44
2022-09-10T01:26:05.404Z,97927.53
2022-09-10T01:31:31.403Z,97922.38
2022-09-10T01:36:39.173Z,97918.16
2022-09-10T01:41:41.312Z,97926.50
2022-09-10T01:47:17.812Z,97926.03
2022-09-10T01:52:32.202Z,97919.78
2022-09-10T01:57:50.377Z,97918.09
2022-09-10T02:03:06.295Z,97921.44
2022-09-10T02:08:14.742Z,97917.66
2022-09-10T02:13:17.324Z,97935.66
2022-09-10T02:18:33.559Z,97922.16
2022-09-10T02:23:41.284Z,97929.09
2022-09-10T02:28:43.744Z,97933.75
2022-09-10T02:33:46.728Z,97929.81
2022-09-10T02:38:48.613Z,97934.84
2022-09-10T02:43:50.444Z,97927.78
2022-09-10T02:48:55.277Z,97929.03
2022-09-10T02:53:58.311Z,97930.50
2022-09-10T02:59:00.563Z,97927.25
2022-09-10T03:04:03.712Z,97920.19
2022-09-10T03:09:06.788Z,97932.69
2022-09-10T03:14:12.279Z,97930.25
2022-09-10T03:19:15.230Z,97920.94
2022-09-10T03:24:17.154Z,97916.38
2022-09-10T03:29:23.021Z,97919.47
2022-09-10T03:34:25.023Z,97917.19
2022-09-10T03:39:27.306Z,97917.28
2022-09-10T03:44:29.196Z,97914.13
2022-09-10T03:49:31.030Z,97911.69
2022-09-10T03:54:33.082Z,97915.66
2022-09-10T03:59:35.516Z,97915.13
2022-09-10T04:04:37.703Z,97920.94
2022-09-10T04:09:39.732Z,97921.34
2022-09-10T04:14:43.620Z,97930.03
2022-09-10T04:19:48.813Z,97925.41
2022-09-10T04:24:52.196Z,97930.47
2022-09-10T04:29:54.217Z,97933.22
2022-09-10T04:34:56.109Z,97935.56
2022-09-10T04:39:59.174Z,97944.16
2022-09-10T04:45:01.103Z,97952.06
2022-09-10T04:50:03.890Z,97952.53
2022-09-10T04:55:06.381Z,97953.78
2022-09-10T05:00:09.017Z,97948.38
2022-09-10T05:05:13.946Z,97960.94
2022-09-10T05:10:15.993Z,97956.59
2022-09-10T05:15:18.903Z,97950.72
2022-09-10T05:20:22.803Z,97949.16
2022-09-10T05:25:28.085Z,97964.00
2022-09-10T05:30:33.106Z,97962.38
2022-09-10T05:35:35.793Z,97956.09
2022-09-10T05:40:38.300Z,97960.88
2022-09-10T05:45:40.310Z,97959.41
2022-09-10T05:50:45.610Z,97960.13
2022-09-10T05:55:48.722Z,97973.41
2022-09-10T06:00:52.153Z,97970.94
2022-09-10T06:05:55.819Z,97973.97
2022-09-10T06:11:06.038Z,97967.53
2022-09-10T06:16:14.494Z,97968.34
2022-09-10T06:21:19.747Z,97969.81
2022-09-10T06:26:26.173Z,97972.91
2022-09-10T06:31:31.539Z,97983.41
2022-09-10T06:36:35.252Z,97985.84
2022-09-10T06:41:37.604Z,97980.66
2022-09-10T06:47:25.806Z,97978.22
2022-09-10T06:52:11.631Z,97980.03
2022-09-10T06:57:14.067Z,97977.16
2022-09-10T07:02:16.901Z,97972.91
2022-09-10T07:07:20.229Z,97974.69
2022-09-10T07:12:22.448Z,97973.19
2022-09-10T07:17:26.777Z,97972.84
2022-09-10T07:22:32.680Z,97965.22
2022-09-10T07:27:35.113Z,97971.72
2022-09-10T07:32:37.304Z,97969.72
2022-09-10T07:37:47.186Z,97972.22
2022-09-10T07:42:49.562Z,97973.53
2022-09-10T07:47:52.332Z,97967.56
2022-09-10T07:52:54.797Z,97981.53
2022-09-10T07:58:00.234Z,97974.56
2022-09-10T08:03:04.918Z,97979.09
2022-09-10T08:08:06.761Z,97985.91
2022-09-10T08:13:10.166Z,97991.50
2022-09-10T08:18:13.704Z,97984.34
2022-09-10T08:23:16.661Z,97995.84
2022-09-10T08:28:25.677Z,97987.75
2022-09-10T08:33:30.095Z,97975.00
2022-09-10T08:38:34.624Z,97979.72
2022-09-10T08:44:03.472Z,97983.25
2022-09-10T08:54:25.455Z,97973.09
2022-09-10T08:59:35.101Z,97976.97
2022-09-10T09:04:51.114Z,97984.50
2022-09-10T09:09:53.876Z,98001.44
2022-09-10T09:15:11.657Z,97988.91
2022-09-10T09:20:26.150Z,97977.25
2022-09-10T09:25:44.648Z,97979.69
2022-09-10T09:30:49.820Z,97980.75
2022-09-10T09:35:59.164Z,97973.44
2022-09-10T09:41:15.773Z,97978.34
2022-09-10T09:46:20.194Z,97976.69
2022-09-10T09:51:25.419Z,97979.13
2022-09-10T09:56:43.044Z,97966.88
2022-09-10T10:01:45.098Z,97974.91
2022-09-10T10:06:54.427Z,97964.75
2022-09-10T10:12:04.484Z,97949.22
2022-09-10T10:17:30.351Z,97947.59
2022-09-10T10:22:32.639Z,97951.38
2022-09-10T10:27:37.773Z,97948.38
2022-09-10T10:32:44.863Z,97950.63
2022-09-10T10:38:08.001Z,97948.41
2022-09-10T10:43:22.991Z,97956.75
2022-09-10T10:48:57.860Z,97940.19
2022-09-10T10:54:22.269Z,97931.72
2022-09-10T10:59:46.212Z,97921.84
2022-09-10T11:04:55.367Z,97904.56
2022-09-10T11:10:19.883Z,97913.53
2022-09-10T11:15:37.934Z,97912.00
2022-09-10T11:21:27.333Z,97915.25
2022-09-10T11:26:44.487Z,97912.84
2022-09-10T11:31:53.738Z,97916.03
2022-09-10T11:37:19.265Z,97907.81
2022-09-10T11:42:41.359Z,97908.59
2022-09-10T11:47:49.080Z,97905.38
2022-09-10T11:52:53.419Z,97912.63
2022-09-10T11:58:17.734Z,97900.50
2022-09-10T12:03:58.296Z,97896.53
2022-09-10T12:09:18.886Z,97899.84
2022-09-10T12:14:21.885Z,97901.59
2022-09-10T12:19:37.517Z,97895.09
2022-09-10T12:24:40.019Z,97900.81
2022-09-10T12:29:42.049Z,97897.03
2022-09-10T12:34:47.166Z,97896.56
2022-09-10T12:40:12.959Z,97884.38
2022-09-10T12:46:01.162Z,97882.25
2022-09-10T12:51:13.910Z,97890.84
2022-09-10T12:56:32.322Z,97878.38
2022-09-10T13:01:49.160Z,97887.19
2022-09-10T13:06:55.013Z,97880.91
2022-09-10T13:12:03.592Z,97876.72
2022-09-10T13:17:05.617Z,97875.78
2022-09-10T13:22:31.918Z,97865.91
2022-09-10T13:27:33.712Z,97872.00
2022-09-10T13:32:48.502Z,97868.44
2022-09-10T13:38:03.736Z,97854.50
2022-09-10T13:43:39.712Z,97846.56
2022-09-10T13:48:51.745Z,97845.06
2022-09-10T13:53:54.814Z,97854.66
2022-09-10T13:59:03.635Z,97865.06
2022-09-10T14:04:27.147Z,97858.13
2022-09-10T14:09:30.313Z,97860.16
2022-09-10T14:14:38.636Z,97863.19
2022-09-10T14:19:44.290Z,97870.16
2022-09-10T14:24:52.196Z,97854.13
2022-09-10T14:30:00.235Z,97850.03
2022-09-10T14:35:39.570Z,97856.94
2022-09-10T14:40:41.602Z,97849.09
2022-09-10T14:45:47.989Z,97838.13
2022-09-10T14:50:50.586Z,97853.78
2022-09-10T14:55:52.856Z,97864.97
2022-09-10T15:00:54.953Z,97870.78
2022-09-10T15:05:56.852Z,97876.97
2022-09-10T15:11:00.348Z,97872.97
2022-09-10T15:16:02.803Z,97882.44
2022-09-10T15:21:07.260Z,97888.75
2022-09-10T15:26:12.569Z,97885.00
2022-09-10T15:31:14.430Z,97894.72
2022-09-10T15:36:16.259Z,97894.72
2022-09-10T15:41:18.461Z,97894.72
2022-09-10T15:46:22.024Z,97899.72
2022-09-10T15:51:24.409Z,97888.00
2022-09-10T15:56:26.701Z,97899.69
2022-09-10T16:01:29.159Z,97912.91
2022-09-10T16:06:36.930Z,97910.13
2022-09-10T16:11:40.983Z,97903.59
2022-09-10T16:16:42.850Z,97912.25
2022-09-10T16:21:48.406Z,97915.34
2022-09-10T16:26:51.272Z,97926.91
2022-09-10T16:31:53.651Z,97911.63
2022-09-10T16:36:55.517Z,97913.28
2022-09-10T16:41:57.558Z,97909.69
2022-09-10T16:46:59.535Z,97915.22
2022-09-10T16:52:01.425Z,97916.00
2022-09-10T16:57:03.343Z,97920.38
2022-09-10T17:02:05.552Z,97931.22
2022-09-10T17:07:07.430Z,97923.28
2022-09-10T17:12:10.628Z,97912.94
2022-09-10T17:17:13.998Z,97916.78
2022-09-10T17:22:15.783Z,97923.19
2022-09-10T17:27:17.607Z,97922.16
2022-09-10T17:32:19.427Z,97924.22
2022-09-10T17:37:21.254Z,97924.13
2022-09-10T17:42:23.048Z,97927.94
2022-09-10T17:47:24.949Z,97932.59
2022-09-10T17:52:26.736Z,97931.91
2022-09-10T17:57:28.549Z,97926.03
2022-09-10T18:02:31.508Z,97931.16
2022-09-10T18:07:33.383Z,97938.53
2022-09-10T18:12:35.179Z,97937.34
2022-09-10T18:17:37.063Z,97940.53
2022-09-10T18:22:39.032Z,97946.13
2022-09-10T18:27:43.446Z,97946.63
2022-09-10T18:32:47.826Z,97945.06
2022-09-10T18:37:52.351Z,97949.81
2022-09-10T18:42:54.843Z,97951.06
2022-09-10T18:47:57.018Z,97959.50
2022-09-10T18:52:59.132Z,97959.44
2022-09-10T18:58:02.026Z,97965.22
2022-09-10T19:03:04.911Z,97966.38
2022-09-10T19:08:07.312Z,97963.94
2022-09-10T19:13:10.623Z,97970.66
2022-09-10T19:18:12.874Z,97971.88
2022-09-10T19:23:19.790Z,97976.09
2022-09-10T19:28:23.683Z,97979.97
2022-09-10T19:33:26.776Z,97987.47
2022-09-10T19:38:46.877Z,97983.91
2022-09-10T19:43:51.039Z,97982.38
2022-09-10T19:48:53.280Z,97986.44
2022-09-10T19:53:56.455Z,97992.94
2022-09-10T19:58:59.779Z,97984.19
2022-09-10T20:04:05.042Z,97983.34
2022-09-10T20:09:09.908Z,97967.63
2022-09-10T20:14:14.297Z,97963.03
2022-09-10T20:19:22.059Z,97967.81
2022-09-10T20:24:23.970Z,97970.34
2022-09-10T20:29:30.054Z,97956.63
2022-09-10T20:34:32.539Z,97966.25
2022-09-10T20:39:34.748Z,97964.44
2022-09-10T20:44:36.804Z,97951.06
2022-09-10T20:49:38.741Z,97957.22
2022-09-10T20:54:40.567Z,97958.94
2022-09-10T20:59:44.160Z,97955.94
2022-09-10T21:04:45.947Z,97955.34
2022-09-10T21:09:47.734Z,97954.50
2022-09-10T21:14:50.274Z,97963.91
2022-09-10T21:19:52.063Z,97966.19
2022-09-10T21:24:53.863Z,97959.91
2022-09-10T21:29:55.642Z,97957.44
2022-09-10T21:34:57.480Z,97956.59
2022-09-10T21:40:01.000Z,97965.22
2022-09-10T21:45:02.896Z,97962.53
2022-09-10T21:50:05.051Z,97962.19
2022-09-10T21:55:07.059Z,97981.59
2022-09-10T22:00:10.166Z,97962.38
2022-09-10T22:05:15.280Z,97963.44
2022-09-10T22:10:18.712Z,97972.84
2022-09-10T22:15:20.722Z,97985.84
2022-09-10T22:20:22.588Z,97984.44
2022-09-10T22:25:24.609Z,97985.16
2022-09-10T22:30:30.114Z,97978.69
2022-09-10T22:35:33.006Z,97991.69
2022-09-10T22:40:34.820Z,97996.69
2022-09-10T22:45:36.634Z,97995.44
2022-09-10T22:50:38.434Z,97998.03
2022-09-10T22:55:40.956Z,97997.47
2022-09-10T23:00:42.776Z,97999.00
2022-09-10T23:05:44.579Z,98004.03
2022-09-10T23:10:46.462Z,98006.81
2022-09-10T23:15:49.065Z,98004.84
2022-09-10T23:20:51.050Z,98013.53
2022-09-10T23:25:52.875Z,98007.47
2022-09-10T23:30:54.762Z,98002.09
2022-09-10T23:35:56.551Z,98005.28
2022-09-10T23:41:00.159Z,98004.88
2022-09-10T23:46:02.256Z,98011.97
2022-09-10T23:51:06.371Z,98014.81
2022-09-10T23:56:08.674Z,98007.00
